Athens, Alabama
Current Conditions -  °F | °C
As of 6:53 PM on Tuesday 21 Oct 2014 (Local Time) from KDCU Reporting Station
Clear Clear  
Wind Chill: 14°   Ceiling: Unl
Heat Index: 14°   Visibility: 10mi
Dew Point:   Wind: 3mph
Humidity: 72%   Direction: 20°NNE
Pressure: 30.03"   Gusts: NA
Location:  34.8°N, 86.97°W
Report Text: KDCU 212353Z AUTO 02003KT 10SM CLR 14/09 A3003 RMK AO2 SLP169 T01440094 10239 20144 53007
Loading
Personal Weather Stations






























Interactive Weather Map
Tropical Storm Tracking
New forecast layout! Learn more

10-Day Weather Forecast

Advertisements
Track Severe Weather on mobile